Terminal Aerodrome Forecast
Issued by NWS

Home | Current Version | Previous Version | Text Only | Print | Product List | Glossary On
Versions: 1 2 3 4 5 6 7 8 9 10 11 12 13 14
000
FTUS43 KPAH 131100
TAFCGI
TAF
KCGI 131120Z 1312/1412 35012G17KT P6SM OVC018
     FM131430 02012G20KT P6SM SCT020
     FM131600 02010KT P6SM SKC
     FM140000 02003KT P6SM SKC=

USA.gov is the U.S. government's official web portal to all federal, state and local government web resources and services.